createdAt,value
2022-10-08T00:01:24.248Z,9.48
2022-10-08T00:04:12.383Z,12.63
2022-10-08T00:06:39.210Z,9.45
2022-10-08T00:09:07.798Z,7.70
2022-10-08T00:11:39.090Z,7.28
2022-10-08T00:14:07.702Z,7.70
2022-10-08T00:16:39.802Z,11.63
2022-10-08T00:21:40.896Z,4.43
2022-10-08T00:24:11.240Z,8.13
2022-10-08T00:26:43.511Z,8.10
2022-10-08T00:29:14.933Z,12.07
2022-10-08T00:31:45.826Z,6.50
2022-10-08T00:34:18.498Z,14.15
2022-10-08T00:36:45.692Z,7.70
2022-10-08T00:39:18.121Z,13.23
2022-10-08T00:41:51.527Z,8.02
2022-10-08T00:44:54.130Z,8.93
2022-10-08T00:47:36.671Z,7.28
2022-10-08T00:50:15.580Z,10.55
2022-10-08T00:52:48.398Z,8.80
2022-10-08T00:55:20.012Z,9.57
2022-10-08T00:57:47.119Z,6.55
2022-10-08T01:00:21.055Z,9.90
2022-10-08T01:03:08.300Z,15.27
2022-10-08T01:06:17.634Z,14.23
2022-10-08T01:09:30.530Z,7.85
2022-10-08T01:12:44.973Z,7.65
2022-10-08T01:15:25.975Z,6.63
2022-10-08T01:18:01.397Z,9.60
2022-10-08T01:21:00.191Z,6.47
2022-10-08T01:23:45.047Z,12.35
2022-10-08T01:26:39.415Z,14.30
2022-10-08T01:29:28.805Z,13.57
2022-10-08T01:32:07.114Z,14.25
2022-10-08T01:35:02.711Z,11.77
2022-10-08T01:37:36.527Z,13.38
2022-10-08T01:40:13.865Z,13.57
2022-10-08T01:42:41.841Z,12.10
2022-10-08T01:45:17.540Z,12.57
2022-10-08T01:47:49.475Z,14.40
2022-10-08T01:50:27.121Z,7.10
2022-10-08T01:53:04.136Z,13.60
2022-10-08T01:55:41.381Z,12.90
2022-10-08T01:58:23.742Z,15.18
2022-10-08T02:00:54.218Z,12.77
2022-10-08T02:03:21.003Z,8.80
2022-10-08T02:05:54.657Z,14.73
2022-10-08T02:08:22.841Z,8.65
2022-10-08T02:10:52.045Z,9.32
2022-10-08T02:13:20.662Z,12.88
2022-10-08T02:16:14.794Z,18.75
2022-10-08T02:18:55.299Z,12.68
2022-10-08T02:21:28.104Z,14.50
2022-10-08T02:24:28.008Z,17.50
2022-10-08T02:27:02.473Z,16.13
2022-10-08T02:29:41.971Z,12.88
2022-10-08T02:32:31.449Z,13.82
2022-10-08T02:35:12.212Z,14.38
2022-10-08T02:37:47.881Z,10.13
2022-10-08T02:40:18.409Z,11.57
2022-10-08T02:42:55.429Z,12.13
2022-10-08T02:45:30.946Z,23.90
2022-10-08T02:48:07.343Z,18.98
2022-10-08T02:50:41.348Z,14.02
2022-10-08T02:53:10.685Z,10.82
2022-10-08T02:55:54.798Z,12.35
2022-10-08T02:58:22.505Z,9.95
2022-10-08T03:01:28.506Z,10.88
2022-10-08T03:04:10.547Z,11.85
2022-10-08T03:06:37.307Z,12.80
2022-10-08T03:09:07.164Z,11.45
2022-10-08T03:11:35.600Z,12.23
2022-10-08T03:14:09.174Z,10.35
2022-10-08T03:16:42.406Z,10.88
2022-10-08T03:19:12.291Z,8.48
2022-10-08T03:21:41.041Z,9.20
2022-10-08T03:24:10.847Z,9.18
2022-10-08T03:26:38.460Z,7.65
2022-10-08T03:29:06.911Z,13.23
2022-10-08T03:31:33.830Z,7.40
2022-10-08T03:34:01.211Z,6.93
2022-10-08T03:36:29.868Z,9.15
2022-10-08T03:38:57.453Z,9.55
2022-10-08T03:41:25.465Z,7.03
2022-10-08T03:43:52.542Z,10.38
2022-10-08T03:46:19.375Z,12.23
2022-10-08T03:48:49.584Z,6.13
2022-10-08T03:51:18.206Z,10.25
2022-10-08T03:53:45.906Z,8.65
2022-10-08T03:56:19.291Z,7.38
2022-10-08T03:58:51.980Z,7.65
2022-10-08T04:01:18.742Z,5.28
2022-10-08T04:03:46.127Z,3.60
2022-10-08T04:06:13.562Z,7.78
2022-10-08T04:08:40.662Z,12.98
2022-10-08T04:11:14.782Z,9.93
2022-10-08T04:13:42.622Z,10.70
2022-10-08T04:16:14.938Z,5.82
2022-10-08T04:18:43.202Z,9.75
2022-10-08T04:21:14.722Z,8.70
2022-10-08T04:23:43.450Z,10.30
2022-10-08T04:26:13.309Z,10.23
2022-10-08T04:28:44.439Z,8.50
2022-10-08T04:31:18.842Z,9.70
2022-10-08T04:33:47.265Z,7.38
2022-10-08T04:36:21.539Z,5.85
2022-10-08T04:38:48.849Z,9.20
2022-10-08T04:41:19.883Z,9.02
2022-10-08T04:43:47.473Z,12.15
2022-10-08T04:46:18.409Z,10.60
2022-10-08T04:48:49.145Z,16.48
2022-10-08T04:51:17.540Z,16.58
2022-10-08T04:53:45.242Z,12.73
2022-10-08T04:56:16.969Z,15.07
2022-10-08T04:58:45.089Z,15.20
2022-10-08T05:01:16.226Z,21.83
2022-10-08T05:03:47.009Z,18.60
2022-10-08T05:06:19.058Z,20.70
2022-10-08T05:08:46.695Z,24.42
2022-10-08T05:11:14.219Z,25.25
2022-10-08T05:13:41.802Z,33.17
2022-10-08T05:16:14.708Z,27.77
2022-10-08T05:18:42.298Z,22.27
2022-10-08T05:21:12.961Z,27.52
2022-10-08T05:23:42.671Z,34.22
2022-10-08T05:26:25.796Z,36.55
2022-10-08T05:29:07.614Z,37.75
2022-10-08T05:31:38.007Z,32.03
2022-10-08T05:34:05.617Z,34.90
2022-10-08T05:36:34.367Z,33.45
2022-10-08T05:39:04.058Z,32.13
2022-10-08T05:41:34.737Z,39.20
2022-10-08T05:44:04.786Z,31.50
2022-10-08T05:46:34.658Z,28.38
2022-10-08T05:49:06.267Z,30.73
2022-10-08T05:51:33.752Z,35.30
2022-10-08T05:54:00.994Z,36.70
2022-10-08T05:56:29.297Z,38.85
2022-10-08T05:58:56.230Z,36.65
2022-10-08T06:01:28.057Z,41.60
2022-10-08T06:03:58.116Z,39.45
2022-10-08T06:06:25.937Z,35.50
2022-10-08T06:08:59.645Z,43.15
2022-10-08T06:11:28.326Z,44.25
2022-10-08T06:13:57.500Z,47.30
2022-10-08T06:16:25.344Z,40.88
2022-10-08T06:18:52.677Z,42.25
2022-10-08T06:21:23.576Z,47.55
2022-10-08T06:24:04.765Z,53.20
2022-10-08T06:26:36.622Z,45.58
2022-10-08T06:29:11.202Z,47.03
2022-10-08T06:31:38.190Z,51.65
2022-10-08T06:34:05.873Z,46.75
2022-10-08T06:36:36.784Z,48.50
2022-10-08T06:39:13.144Z,48.22
2022-10-08T06:41:40.082Z,49.15
2022-10-08T06:44:12.307Z,45.17
2022-10-08T06:49:07.322Z,43.65
2022-10-08T06:51:35.869Z,42.55
2022-10-08T06:54:07.316Z,41.72
2022-10-08T06:59:05.044Z,39.67
2022-10-08T07:01:34.075Z,44.88
2022-10-08T07:04:02.720Z,43.92
2022-10-08T07:06:29.977Z,42.25
2022-10-08T07:09:00.229Z,42.72
2022-10-08T07:11:29.091Z,40.20
2022-10-08T07:13:57.067Z,49.42
2022-10-08T07:16:26.809Z,39.63
2022-10-08T07:18:58.219Z,32.05
2022-10-08T07:21:25.920Z,40.20
2022-10-08T07:23:53.027Z,34.55
2022-10-08T07:26:24.610Z,36.25
2022-10-08T07:29:02.781Z,33.75
2022-10-08T07:31:36.258Z,27.50
2022-10-08T07:34:08.253Z,24.50
2022-10-08T07:36:35.843Z,29.10
2022-10-08T07:39:07.859Z,27.13
2022-10-08T07:41:35.480Z,26.52
2022-10-08T07:44:04.163Z,25.25
2022-10-08T07:46:36.030Z,26.13
2022-10-08T07:49:05.016Z,24.60
2022-10-08T07:51:34.912Z,24.02
2022-10-08T07:54:04.766Z,25.80
2022-10-08T07:56:34.215Z,16.65
2022-10-08T07:59:02.989Z,17.13
2022-10-08T08:01:31.261Z,13.07
2022-10-08T08:04:02.426Z,12.25
2022-10-08T08:06:30.942Z,13.95
2022-10-08T08:09:00.968Z,13.35
2022-10-08T08:11:28.172Z,12.00
2022-10-08T08:13:55.090Z,10.25
2022-10-08T08:16:28.271Z,11.98
2022-10-08T08:19:01.096Z,10.00
2022-10-08T08:21:35.515Z,8.68
2022-10-08T08:24:12.363Z,11.95
2022-10-08T08:26:41.670Z,7.30
2022-10-08T08:29:15.374Z,10.27
2022-10-08T08:31:48.462Z,8.20
2022-10-08T08:34:20.557Z,4.15
2022-10-08T08:36:51.273Z,7.82
2022-10-08T08:39:24.858Z,13.10
2022-10-08T08:42:44.285Z,6.43
2022-10-08T08:45:47.388Z,3.97
2022-10-08T08:48:28.891Z,10.57
2022-10-08T08:50:58.766Z,8.35
2022-10-08T08:53:26.593Z,7.07
2022-10-08T08:55:59.580Z,3.63
2022-10-08T08:58:41.406Z,6.75
2022-10-08T09:01:35.667Z,7.68
2022-10-08T09:04:23.694Z,7.07
2022-10-08T09:07:16.709Z,5.57
2022-10-08T09:09:58.688Z,8.18
2022-10-08T09:12:41.537Z,8.65
2022-10-08T09:15:23.654Z,6.28
2022-10-08T09:17:53.003Z,5.03
2022-10-08T09:20:24.574Z,2.42
2022-10-08T09:22:53.981Z,5.97
2022-10-08T09:25:28.309Z,3.38
2022-10-08T09:27:58.126Z,4.00
2022-10-08T09:30:24.849Z,6.97
2022-10-08T09:32:56.228Z,8.15
2022-10-08T09:35:23.552Z,4.88
2022-10-08T09:37:51.545Z,4.32
2022-10-08T09:40:27.565Z,7.85
2022-10-08T09:43:20.326Z,8.07
2022-10-08T09:45:50.115Z,6.18
2022-10-08T09:48:29.655Z,7.82
2022-10-08T09:51:16.569Z,3.08
2022-10-08T09:53:52.841Z,7.65
2022-10-08T09:56:28.128Z,3.53
2022-10-08T09:59:04.047Z,6.68
2022-10-08T10:01:32.267Z,5.60
2022-10-08T10:04:02.649Z,4.55
2022-10-08T10:06:40.550Z,6.07
2022-10-08T10:09:47.166Z,7.80
2022-10-08T10:12:28.725Z,3.38
2022-10-08T10:15:05.645Z,7.20
2022-10-08T10:17:48.509Z,7.70
2022-10-08T10:20:39.816Z,5.03
2022-10-08T10:23:21.064Z,2.38
2022-10-08T10:26:23.325Z,4.15
2022-10-08T10:29:04.389Z,5.78
2022-10-08T10:31:53.612Z,2.80
2022-10-08T10:34:28.825Z,2.78
2022-10-08T10:37:01.450Z,2.63
2022-10-08T10:39:39.132Z,3.87
2022-10-08T10:42:36.497Z,4.65
2022-10-08T10:45:25.810Z,4.38
2022-10-08T10:47:54.721Z,4.95
2022-10-08T10:51:03.504Z,4.95
2022-10-08T10:54:05.860Z,4.60
2022-10-08T10:56:53.804Z,4.72
2022-10-08T10:59:23.476Z,6.65
2022-10-08T11:02:26.593Z,4.65
2022-10-08T11:05:20.645Z,4.70
2022-10-08T11:08:27.019Z,7.15
2022-10-08T11:11:10.654Z,3.53
2022-10-08T11:14:04.192Z,6.68
2022-10-08T11:17:09.536Z,8.30
2022-10-08T11:20:12.016Z,5.60
2022-10-08T11:22:53.537Z,2.92
2022-10-08T11:26:20.520Z,2.00
2022-10-08T11:29:11.230Z,4.03
2022-10-08T11:31:46.640Z,6.63
2022-10-08T11:34:29.713Z,5.88
2022-10-08T11:37:10.075Z,4.90
2022-10-08T11:39:50.783Z,4.20
2022-10-08T11:42:23.512Z,1.92
2022-10-08T11:44:50.712Z,1.52
2022-10-08T11:47:41.959Z,4.68
2022-10-08T11:50:33.001Z,6.53
2022-10-08T11:53:32.457Z,2.70
2022-10-08T11:55:59.736Z,7.05
2022-10-08T11:58:32.591Z,3.42
2022-10-08T12:01:10.761Z,3.25
2022-10-08T12:03:42.834Z,6.05
2022-10-08T12:06:26.264Z,2.47
2022-10-08T12:09:01.532Z,7.03
2022-10-08T12:11:40.556Z,4.30
2022-10-08T12:14:16.848Z,4.60
2022-10-08T12:16:55.250Z,3.80
2022-10-08T12:19:34.402Z,4.40
2022-10-08T12:22:14.531Z,2.25
2022-10-08T12:24:43.790Z,4.10
2022-10-08T12:27:24.234Z,5.45
2022-10-08T12:30:07.814Z,5.30
2022-10-08T12:32:43.631Z,4.38
2022-10-08T12:35:27.828Z,8.55
2022-10-08T12:38:07.680Z,4.22
2022-10-08T12:41:00.936Z,2.65
2022-10-08T12:44:19.589Z,2.55
2022-10-08T12:46:59.236Z,6.68
2022-10-08T12:49:41.500Z,4.22
2022-10-08T12:52:15.839Z,2.92
2022-10-08T12:54:51.403Z,4.30
2022-10-08T12:57:30.221Z,2.50
2022-10-08T13:00:24.825Z,4.80
2022-10-08T13:03:07.334Z,4.55
2022-10-08T13:05:40.492Z,4.50
2022-10-08T13:08:18.860Z,3.40
2022-10-08T13:10:47.714Z,3.28
2022-10-08T13:13:40.556Z,2.08
2022-10-08T13:16:24.059Z,0.93
2022-10-08T13:18:58.585Z,4.68
2022-10-08T13:21:31.270Z,3.33
2022-10-08T13:24:00.561Z,5.68
2022-10-08T13:26:52.150Z,3.78
2022-10-08T13:29:21.597Z,4.63
2022-10-08T13:32:11.289Z,3.38
2022-10-08T13:34:40.795Z,6.80
2022-10-08T13:37:29.740Z,3.92
2022-10-08T13:39:59.910Z,4.60
2022-10-08T13:42:34.319Z,2.72
2022-10-08T13:45:04.840Z,2.70
2022-10-08T13:47:31.813Z,4.63
2022-10-08T13:50:02.099Z,3.08
2022-10-08T13:52:32.558Z,3.17
2022-10-08T13:55:04.963Z,4.45
2022-10-08T13:57:32.891Z,7.30
2022-10-08T14:00:00.073Z,3.83
2022-10-08T14:02:26.837Z,4.70
2022-10-08T14:04:53.670Z,3.65
2022-10-08T14:07:35.274Z,3.08
2022-10-08T14:10:03.042Z,4.57
2022-10-08T14:12:33.656Z,3.78
2022-10-08T14:15:01.107Z,3.90
2022-10-08T14:17:28.397Z,2.97
2022-10-08T14:19:55.598Z,3.75
2022-10-08T14:22:23.216Z,3.88
2022-10-08T14:24:50.046Z,5.60
2022-10-08T14:27:17.450Z,4.70
2022-10-08T14:29:44.527Z,3.35
2022-10-08T14:32:12.350Z,3.60
2022-10-08T14:34:39.327Z,3.72
2022-10-08T14:37:06.794Z,4.85
2022-10-08T14:39:33.930Z,4.57
2022-10-08T14:42:00.645Z,4.38
2022-10-08T14:44:27.422Z,3.08
2022-10-08T14:46:54.136Z,4.82
2022-10-08T14:49:21.141Z,3.08
2022-10-08T14:51:48.537Z,5.25
2022-10-08T14:54:15.732Z,3.45
2022-10-08T14:56:43.141Z,4.30
2022-10-08T14:59:13.501Z,9.95
2022-10-08T15:01:40.683Z,3.40
2022-10-08T15:04:08.261Z,4.60
2022-10-08T15:06:35.178Z,2.60
2022-10-08T15:09:01.918Z,6.22
2022-10-08T15:11:28.719Z,7.20
2022-10-08T15:13:55.628Z,6.80
2022-10-08T15:16:22.823Z,3.70
2022-10-08T15:18:49.763Z,7.82
2022-10-08T15:21:18.829Z,4.45
2022-10-08T15:23:45.682Z,2.28
2022-10-08T15:26:15.383Z,3.03
2022-10-08T15:28:44.443Z,4.50
2022-10-08T15:31:19.664Z,3.85
2022-10-08T15:33:49.590Z,3.35
2022-10-08T15:36:21.656Z,5.40
2022-10-08T15:39:17.378Z,4.65
2022-10-08T15:41:48.411Z,7.07
2022-10-08T15:44:26.502Z,2.40
2022-10-08T15:47:02.065Z,3.15
2022-10-08T15:49:40.380Z,6.60
2022-10-08T15:52:12.212Z,4.28
2022-10-08T15:54:40.702Z,5.15
2022-10-08T15:57:10.062Z,3.17
2022-10-08T15:59:37.223Z,5.75
2022-10-08T16:02:05.119Z,3.97
2022-10-08T16:04:32.109Z,5.18
2022-10-08T16:06:59.208Z,4.57
2022-10-08T16:09:26.085Z,4.85
2022-10-08T16:11:52.848Z,4.00
2022-10-08T16:14:23.264Z,8.85
2022-10-08T16:16:51.925Z,7.07
2022-10-08T16:19:22.980Z,9.30
2022-10-08T16:21:51.942Z,5.00
2022-10-08T16:24:19.468Z,3.03
2022-10-08T16:26:48.634Z,6.10
2022-10-08T16:29:17.174Z,7.22
2022-10-08T16:31:45.534Z,4.07
2022-10-08T16:34:22.609Z,3.45
2022-10-08T16:36:51.793Z,5.43
2022-10-08T16:39:21.652Z,2.78
2022-10-08T16:41:49.531Z,3.15
2022-10-08T16:44:19.830Z,4.10
2022-10-08T16:46:52.338Z,8.50
2022-10-08T16:49:26.115Z,4.03
2022-10-08T16:52:04.651Z,2.63
2022-10-08T16:54:32.820Z,3.80
2022-10-08T16:56:59.729Z,5.13
2022-10-08T16:59:29.409Z,6.07
2022-10-08T17:01:59.223Z,4.50
2022-10-08T17:04:29.037Z,7.25
2022-10-08T17:06:56.533Z,5.82
2022-10-08T17:09:23.468Z,5.35
2022-10-08T17:11:50.306Z,6.40
2022-10-08T17:14:17.219Z,3.70
2022-10-08T17:16:45.605Z,6.47
2022-10-08T17:19:13.199Z,10.05
2022-10-08T17:21:41.056Z,8.98
2022-10-08T17:24:10.838Z,6.32
2022-10-08T17:26:38.517Z,5.28
2022-10-08T17:29:09.556Z,8.57
2022-10-08T17:31:37.529Z,4.90
2022-10-08T17:34:05.506Z,6.00
2022-10-08T17:36:36.857Z,6.35
2022-10-08T17:39:07.422Z,13.18
2022-10-08T17:41:40.261Z,7.85
2022-10-08T17:44:09.909Z,5.10
2022-10-08T17:46:46.034Z,6.25
2022-10-08T17:49:16.446Z,11.18
2022-10-08T17:51:43.724Z,11.25
2022-10-08T17:54:19.166Z,10.93
2022-10-08T17:56:47.531Z,9.10
2022-10-08T17:59:17.720Z,9.35
2022-10-08T18:01:45.970Z,10.20
2022-10-08T18:04:16.310Z,7.90
2022-10-08T18:06:46.386Z,10.10
2022-10-08T18:09:20.167Z,8.88
2022-10-08T18:11:52.093Z,8.38
2022-10-08T18:14:21.600Z,7.68
2022-10-08T18:16:48.984Z,8.23
2022-10-08T18:19:17.765Z,9.23
2022-10-08T18:21:45.150Z,6.00
2022-10-08T18:24:11.938Z,8.65
2022-10-08T18:26:38.891Z,10.63
2022-10-08T18:29:09.943Z,11.95
2022-10-08T18:31:40.040Z,8.75
2022-10-08T18:34:18.798Z,6.55
2022-10-08T18:36:46.621Z,7.30
2022-10-08T18:39:23.534Z,8.75
2022-10-08T18:41:54.281Z,9.18
2022-10-08T18:44:25.346Z,10.35
2022-10-08T18:46:52.911Z,9.00
2022-10-08T18:49:30.350Z,9.48
2022-10-08T18:51:58.485Z,9.82
2022-10-08T18:54:25.330Z,9.82
2022-10-08T18:56:52.186Z,9.48
2022-10-08T18:59:19.032Z,17.52
2022-10-08T19:01:47.691Z,7.43
2022-10-08T19:04:19.751Z,9.20
2022-10-08T19:06:50.033Z,7.93
2022-10-08T19:09:17.168Z,9.70
2022-10-08T19:11:48.013Z,7.40
2022-10-08T19:14:19.122Z,11.90
2022-10-08T19:16:46.620Z,11.90
2022-10-08T19:19:20.892Z,13.52
2022-10-08T19:21:49.067Z,9.35
2022-10-08T19:24:22.851Z,10.13
2022-10-08T19:26:50.699Z,9.05
2022-10-08T19:29:28.825Z,8.73
2022-10-08T19:31:56.377Z,8.57
2022-10-08T19:34:26.079Z,12.85
2022-10-08T19:36:54.127Z,10.93
2022-10-08T19:39:25.468Z,11.07
2022-10-08T19:41:52.912Z,12.50
2022-10-08T19:44:20.423Z,10.77
2022-10-08T19:46:48.934Z,11.88
2022-10-08T19:49:16.429Z,13.45
2022-10-08T19:51:44.338Z,9.20
2022-10-08T19:54:12.045Z,10.00
2022-10-08T19:56:39.218Z,10.95
2022-10-08T19:59:06.373Z,9.30
2022-10-08T20:01:39.820Z,16.20
2022-10-08T20:04:09.339Z,9.82
2022-10-08T20:06:40.122Z,10.50
2022-10-08T20:09:13.568Z,12.70
2022-10-08T20:11:42.976Z,9.00
2022-10-08T20:14:11.348Z,9.52
2022-10-08T20:16:41.642Z,10.65
2022-10-08T20:19:19.306Z,10.85
2022-10-08T20:21:49.433Z,14.82
2022-10-08T20:24:18.950Z,9.20
2022-10-08T20:26:46.302Z,11.05
2022-10-08T20:29:21.077Z,12.40
2022-10-08T20:31:54.112Z,10.20
2022-10-08T20:34:28.789Z,16.55
2022-10-08T20:36:55.672Z,10.25
2022-10-08T20:39:22.849Z,10.98
2022-10-08T20:41:50.353Z,12.30
2022-10-08T20:44:17.505Z,11.27
2022-10-08T20:46:44.788Z,12.10
2022-10-08T20:49:13.402Z,13.68
2022-10-08T20:51:43.068Z,11.50
2022-10-08T20:54:14.306Z,9.23
2022-10-08T20:56:42.833Z,10.55
2022-10-08T20:59:14.964Z,12.65
2022-10-08T21:04:09.101Z,15.25
2022-10-08T21:06:45.350Z,15.68
2022-10-08T21:09:13.230Z,10.00
2022-10-08T21:11:41.025Z,12.00
2022-10-08T21:14:10.066Z,14.68
2022-10-08T21:16:39.961Z,10.20
2022-10-08T21:19:14.680Z,17.20
2022-10-08T21:21:41.984Z,15.13
2022-10-08T21:24:09.343Z,12.23
2022-10-08T21:26:40.240Z,11.52
2022-10-08T21:29:13.331Z,13.07
2022-10-08T21:31:42.337Z,12.88
2022-10-08T21:34:12.244Z,14.27
2022-10-08T21:36:40.800Z,13.50
2022-10-08T21:39:14.080Z,13.80
2022-10-08T21:41:40.797Z,12.15
2022-10-08T21:44:09.143Z,16.10
2022-10-08T21:46:40.561Z,12.25
2022-10-08T21:49:12.997Z,10.93
2022-10-08T21:51:39.792Z,14.98
2022-10-08T21:54:08.310Z,13.25
2022-10-08T21:56:38.501Z,11.63
2022-10-08T21:59:08.314Z,13.52
2022-10-08T22:01:40.997Z,16.15
2022-10-08T22:04:21.487Z,13.15
2022-10-08T22:06:52.082Z,17.00
2022-10-08T22:09:29.483Z,18.88
2022-10-08T22:11:58.334Z,10.82
2022-10-08T22:14:26.123Z,19.98
2022-10-08T22:16:53.317Z,13.35
2022-10-08T22:19:20.810Z,11.05
2022-10-08T22:21:47.682Z,19.10
2022-10-08T22:24:15.417Z,17.10
2022-10-08T22:26:46.389Z,16.55
2022-10-08T22:29:14.453Z,14.05
2022-10-08T22:31:41.626Z,16.10
2022-10-08T22:34:08.780Z,14.32
2022-10-08T22:36:40.952Z,14.98
2022-10-08T22:41:35.683Z,14.55
2022-10-08T22:44:03.691Z,18.52
2022-10-08T22:46:37.149Z,18.13
2022-10-08T22:49:09.559Z,14.95
2022-10-08T22:51:37.036Z,15.48
2022-10-08T22:54:04.991Z,13.68
2022-10-08T22:56:32.393Z,13.85
2022-10-08T22:59:00.142Z,16.13
2022-10-08T23:01:28.948Z,22.80
2022-10-08T23:03:56.786Z,16.38
2022-10-08T23:06:31.755Z,17.85
2022-10-08T23:09:02.291Z,18.20
2022-10-08T23:11:31.738Z,14.57
2022-10-08T23:14:00.764Z,15.30
2022-10-08T23:16:29.948Z,14.65
2022-10-08T23:19:05.361Z,14.30
2022-10-08T23:21:34.138Z,15.60
2022-10-08T23:24:01.140Z,13.77
2022-10-08T23:26:29.068Z,14.52
2022-10-08T23:28:59.625Z,15.98
2022-10-08T23:31:33.333Z,12.43
2022-10-08T23:34:00.833Z,18.10
2022-10-08T23:36:32.459Z,19.27
2022-10-08T23:38:59.978Z,12.40
2022-10-08T23:41:27.744Z,10.52
2022-10-08T23:43:55.962Z,14.15
2022-10-08T23:46:26.730Z,12.57
2022-10-08T23:48:55.197Z,17.38
2022-10-08T23:51:24.709Z,15.48
2022-10-08T23:53:52.720Z,15.88
2022-10-08T23:56:21.357Z,16.13
2022-10-08T23:58:48.717Z,10.68
